createdAt,value
2018-11-21T00:01:44.869Z,-3.30
2018-11-21T00:04:13.334Z,-3.30
2018-11-21T00:06:41.349Z,-3.30
2018-11-21T00:09:10.700Z,-3.30
2018-11-21T00:11:38.686Z,-3.30
2018-11-21T00:14:07.627Z,-3.40
2018-11-21T00:16:37.958Z,-3.40
2018-11-21T00:19:06.479Z,-3.50
2018-11-21T00:21:34.932Z,-3.50
2018-11-21T00:24:03.156Z,-3.60
2018-11-21T00:26:31.519Z,-3.60
2018-11-21T00:29:00.178Z,-3.60
2018-11-21T00:31:28.086Z,-3.70
2018-11-21T00:33:56.355Z,-3.60
2018-11-21T00:36:24.548Z,-3.70
2018-11-21T00:38:52.790Z,-3.70
2018-11-21T00:41:21.128Z,-3.60
2018-11-21T00:43:49.820Z,-3.70
2018-11-21T00:46:17.784Z,-3.70
2018-11-21T00:48:46.418Z,-3.70
2018-11-21T00:51:14.643Z,-3.70
2018-11-21T00:53:42.846Z,-3.70
2018-11-21T00:56:11.109Z,-3.70
2018-11-21T00:58:39.712Z,-3.70
2018-11-21T01:01:08.280Z,-3.70
2018-11-21T01:03:36.572Z,-3.70
2018-11-21T01:06:07.566Z,-3.50
2018-11-21T01:08:35.826Z,-3.60
2018-11-21T01:11:06.463Z,-3.60
2018-11-21T01:13:34.914Z,-3.70
2018-11-21T01:16:05.280Z,-3.70
2018-11-21T01:18:33.876Z,-3.80
2018-11-21T01:21:01.959Z,-3.90
2018-11-21T01:23:30.222Z,-4.00
2018-11-21T01:25:58.537Z,-4.00
2018-11-21T01:28:27.105Z,-4.10
2018-11-21T01:30:55.379Z,-4.10
2018-11-21T01:33:23.891Z,-4.00
2018-11-21T01:35:52.109Z,-4.00
2018-11-21T01:38:20.423Z,-4.00
2018-11-21T01:40:48.724Z,-4.00
2018-11-21T01:43:16.960Z,-4.00
2018-11-21T01:45:45.258Z,-3.90
2018-11-21T01:48:13.942Z,-3.80
2018-11-21T01:50:42.297Z,-3.80
2018-11-21T01:53:10.941Z,-3.70
2018-11-21T01:55:39.227Z,-3.70
2018-11-21T01:58:07.875Z,-3.80
2018-11-21T02:00:36.640Z,-3.90
2018-11-21T02:03:04.572Z,-4.00
2018-11-21T02:05:33.328Z,-4.10
2018-11-21T02:08:01.787Z,-4.10
2018-11-21T02:10:30.074Z,-4.20
2018-11-21T02:12:58.738Z,-4.20
2018-11-21T02:15:27.416Z,-4.20
2018-11-21T02:17:55.712Z,-4.20
2018-11-21T02:20:26.468Z,-4.20
2018-11-21T02:22:54.745Z,-4.20
2018-11-21T02:25:23.408Z,-4.10
2018-11-21T02:27:51.562Z,-4.00
2018-11-21T02:30:19.990Z,-3.90
2018-11-21T02:32:48.334Z,-3.80
2018-11-21T02:35:18.987Z,-3.80
2018-11-21T02:37:47.665Z,-3.80
2018-11-21T02:40:15.897Z,-3.90
2018-11-21T02:42:44.111Z,-3.90
2018-11-21T02:45:12.495Z,-3.80
2018-11-21T02:47:42.311Z,-3.80
2018-11-21T02:50:10.718Z,-3.70
2018-11-21T02:52:39.221Z,-3.70
2018-11-21T02:55:07.840Z,-3.60
2018-11-21T02:57:36.610Z,-3.70
2018-11-21T03:00:12.021Z,-3.90
2018-11-21T03:02:40.268Z,-4.00
2018-11-21T03:05:08.577Z,-4.00
2018-11-21T03:07:37.179Z,-4.10
2018-11-21T03:10:06.582Z,-4.20
2018-11-21T03:12:35.251Z,-4.20
2018-11-21T03:15:03.308Z,-4.20
2018-11-21T03:17:31.795Z,-4.10
2018-11-21T03:20:00.000Z,-4.10
2018-11-21T03:22:28.598Z,-4.10
2018-11-21T03:24:57.028Z,-4.10
2018-11-21T03:27:25.307Z,-4.10
2018-11-21T03:29:53.524Z,-4.00
2018-11-21T03:32:21.816Z,-4.00
2018-11-21T03:34:50.517Z,-3.90
2018-11-21T03:37:18.810Z,-3.90
2018-11-21T03:39:47.305Z,-4.00
2018-11-21T03:42:15.773Z,-4.00
2018-11-21T03:44:43.853Z,-4.00
2018-11-21T03:47:12.704Z,-3.90
2018-11-21T03:49:41.442Z,-3.70
2018-11-21T03:52:09.933Z,-3.70
2018-11-21T03:54:38.612Z,-3.90
2018-11-21T03:57:07.037Z,-4.00
2018-11-21T03:59:35.477Z,-4.00
2018-11-21T04:02:03.747Z,-3.90
2018-11-21T04:04:37.035Z,-4.10
2018-11-21T04:07:05.801Z,-4.20
2018-11-21T04:09:34.413Z,-4.30
2018-11-21T04:12:03.107Z,-4.40
2018-11-21T04:14:31.853Z,-4.40
2018-11-21T04:17:00.442Z,-4.40
2018-11-21T04:19:29.100Z,-4.30
2018-11-21T04:21:57.094Z,-4.10
2018-11-21T04:24:25.689Z,-4.00
2018-11-21T04:26:53.942Z,-4.10
2018-11-21T04:29:22.185Z,-4.10
2018-11-21T04:31:50.647Z,-4.20
2018-11-21T04:34:19.603Z,-4.20
2018-11-21T04:36:47.850Z,-4.30
2018-11-21T04:39:16.305Z,-4.50
2018-11-21T04:41:44.787Z,-4.60
2018-11-21T04:44:14.753Z,-4.60
2018-11-21T04:46:43.045Z,-4.70
2018-11-21T04:49:11.316Z,-4.70
2018-11-21T04:51:40.407Z,-4.60
2018-11-21T04:54:09.023Z,-4.60
2018-11-21T04:56:37.233Z,-4.50
2018-11-21T04:59:05.939Z,-4.40
2018-11-21T05:01:34.270Z,-4.30
2018-11-21T05:04:02.944Z,-4.40
2018-11-21T05:06:31.538Z,-4.50
2018-11-21T05:08:59.958Z,-4.50
2018-11-21T05:11:28.189Z,-4.60
2018-11-21T05:13:56.743Z,-4.60
2018-11-21T05:16:25.163Z,-4.50
2018-11-21T05:18:53.576Z,-4.40
2018-11-21T05:21:21.687Z,-4.30
2018-11-21T05:23:49.943Z,-4.20
2018-11-21T05:26:18.181Z,-4.20
2018-11-21T05:28:46.508Z,-4.30
2018-11-21T05:31:14.993Z,-4.30
2018-11-21T05:33:43.670Z,-4.20
2018-11-21T05:36:11.751Z,-4.10
2018-11-21T05:38:40.696Z,-4.10
2018-11-21T05:41:09.374Z,-4.10
2018-11-21T05:43:38.032Z,-4.10
2018-11-21T05:46:06.237Z,-4.20
2018-11-21T05:48:34.544Z,-4.30
2018-11-21T05:51:03.215Z,-4.30
2018-11-21T05:53:31.323Z,-4.30
2018-11-21T05:55:59.646Z,-4.30
2018-11-21T05:58:27.888Z,-4.10
2018-11-21T06:00:56.683Z,-4.20
2018-11-21T06:03:25.057Z,-4.30
2018-11-21T06:05:53.474Z,-4.30
2018-11-21T06:08:21.914Z,-4.30
2018-11-21T06:10:50.160Z,-4.30
2018-11-21T06:13:18.361Z,-4.30
2018-11-21T06:15:46.730Z,-4.20
2018-11-21T06:18:14.881Z,-4.10
2018-11-21T06:20:43.624Z,-3.90
2018-11-21T06:23:11.853Z,-3.90
2018-11-21T06:25:40.218Z,-4.00
2018-11-21T06:28:08.615Z,-4.10
2018-11-21T06:30:37.115Z,-4.20
2018-11-21T06:33:06.013Z,-4.30
2018-11-21T06:35:34.222Z,-4.30
2018-11-21T06:38:02.401Z,-4.40
2018-11-21T06:40:30.622Z,-4.40
2018-11-21T06:42:59.611Z,-4.40
2018-11-21T06:45:28.815Z,-4.40
2018-11-21T06:47:57.244Z,-4.40
2018-11-21T06:50:25.592Z,-4.40
2018-11-21T06:52:55.147Z,-4.30
2018-11-21T06:55:23.390Z,-4.30
2018-11-21T06:57:51.640Z,-4.30
2018-11-21T07:00:19.900Z,-4.20
2018-11-21T07:02:48.595Z,-4.10
2018-11-21T07:05:17.317Z,-4.00
2018-11-21T07:07:46.278Z,-4.00
2018-11-21T07:10:15.716Z,-3.90
2018-11-21T07:12:45.235Z,-3.90
2018-11-21T07:15:13.989Z,-3.80
2018-11-21T07:17:42.680Z,-3.60
2018-11-21T07:20:12.267Z,-3.50
2018-11-21T07:22:40.934Z,-3.20
2018-11-21T07:25:12.549Z,-2.90
2018-11-21T07:27:40.957Z,-2.70
2018-11-21T07:30:11.560Z,-2.50
2018-11-21T07:32:39.963Z,-2.30
2018-11-21T07:35:08.493Z,-2.20
2018-11-21T07:37:37.345Z,-2.10
2018-11-21T07:40:07.454Z,-2.10
2018-11-21T07:42:35.847Z,-2.00
2018-11-21T07:45:04.044Z,-2.00
2018-11-21T07:47:32.440Z,-2.00
2018-11-21T07:50:00.823Z,-2.00
2018-11-21T07:52:29.058Z,-2.00
2018-11-21T07:54:57.276Z,-2.00
2018-11-21T07:57:31.443Z,-1.80
2018-11-21T08:01:05.731Z,-1.60
2018-11-21T08:03:56.636Z,-1.50
2018-11-21T08:06:37.511Z,-1.30
2018-11-21T08:09:26.394Z,-1.30
2018-11-21T08:12:13.797Z,-1.30
2018-11-21T08:15:19.405Z,-1.40
2018-11-21T08:18:00.722Z,-1.30
2018-11-21T08:20:40.715Z,-1.10
2018-11-21T08:23:27.293Z,-0.90
2018-11-21T08:26:09.609Z,-0.80
2018-11-21T08:28:38.124Z,-0.70
2018-11-21T08:31:06.482Z,-0.50
2018-11-21T08:33:34.705Z,-0.40
2018-11-21T08:36:02.922Z,-0.40
2018-11-21T08:38:31.249Z,-0.50
2018-11-21T08:40:59.726Z,-0.40
2018-11-21T08:43:28.445Z,-0.20
2018-11-21T08:45:56.839Z,-0.20
2018-11-21T08:48:25.285Z,-0.20
2018-11-21T08:50:53.560Z,-0.20
2018-11-21T08:53:21.818Z,-0.20
2018-11-21T08:55:50.025Z,-0.20
2018-11-21T08:58:18.259Z,-0.20
2018-11-21T09:00:47.181Z,-0.10
2018-11-21T09:03:15.502Z,-0.10
2018-11-21T09:05:43.977Z,0.00
2018-11-21T09:08:12.205Z,0.00
2018-11-21T09:10:41.024Z,0.00
2018-11-21T09:13:09.302Z,0.00
2018-11-21T09:15:37.545Z,0.10
2018-11-21T09:18:05.757Z,0.10
2018-11-21T09:20:33.960Z,0.10
2018-11-21T09:23:02.154Z,0.20
2018-11-21T09:25:30.504Z,0.40
2018-11-21T09:27:59.085Z,0.50
2018-11-21T09:30:27.362Z,0.50
2018-11-21T09:32:56.937Z,0.70
2018-11-21T09:35:25.183Z,0.80
2018-11-21T09:37:54.013Z,0.90
2018-11-21T09:40:23.195Z,0.90
2018-11-21T09:42:53.010Z,0.80
2018-11-21T09:45:22.094Z,0.70
2018-11-21T09:47:50.320Z,0.80
2018-11-21T09:50:20.597Z,0.90
2018-11-21T09:52:50.415Z,0.90
2018-11-21T09:55:17.461Z,0.90
2018-11-21T09:57:45.738Z,0.80
2018-11-21T10:00:51.994Z,0.80
2018-11-21T10:03:22.212Z,0.70
2018-11-21T10:05:53.486Z,0.80
2018-11-21T10:08:50.019Z,0.70
2018-11-21T10:11:18.484Z,0.80
2018-11-21T10:13:46.722Z,0.60
2018-11-21T10:16:15.116Z,0.60
2018-11-21T10:18:44.637Z,0.60
2018-11-21T10:21:17.019Z,0.50
2018-11-21T10:23:45.310Z,0.50
2018-11-21T10:26:13.621Z,0.40
2018-11-21T10:28:42.667Z,0.40
2018-11-21T10:31:10.861Z,0.30
2018-11-21T10:33:39.041Z,0.30
2018-11-21T10:36:07.548Z,0.20
2018-11-21T10:38:35.759Z,0.20
2018-11-21T10:41:04.271Z,0.20
2018-11-21T10:43:33.417Z,0.20
2018-11-21T10:46:01.678Z,0.10
2018-11-21T10:48:29.895Z,0.20
2018-11-21T10:50:58.136Z,0.20
2018-11-21T10:53:26.667Z,0.30
2018-11-21T10:55:54.944Z,0.40
2018-11-21T10:58:23.186Z,0.40
2018-11-21T11:01:09.052Z,0.40
2018-11-21T11:03:39.950Z,0.50
2018-11-21T11:06:22.322Z,0.50
2018-11-21T11:09:08.600Z,0.40
2018-11-21T11:11:54.755Z,0.30
2018-11-21T11:14:47.715Z,0.20
2018-11-21T11:17:39.840Z,0.10
2018-11-21T11:20:27.693Z,0.10
2018-11-21T11:23:15.092Z,0.20
2018-11-21T11:25:57.440Z,0.30
2018-11-21T11:28:44.865Z,0.30
2018-11-21T11:31:29.441Z,0.40
2018-11-21T11:34:18.444Z,0.40
2018-11-21T11:37:00.152Z,0.40
2018-11-21T11:39:47.777Z,0.50
2018-11-21T11:42:33.655Z,0.50
2018-11-21T11:45:19.931Z,0.30
2018-11-21T11:48:06.063Z,0.30
2018-11-21T11:50:43.033Z,0.40
2018-11-21T11:53:30.500Z,0.50
2018-11-21T11:56:17.893Z,0.50
2018-11-21T11:59:00.792Z,0.60
2018-11-21T12:01:50.868Z,0.70
2018-11-21T12:04:36.755Z,0.70
2018-11-21T12:07:24.033Z,0.70
2018-11-21T12:10:08.067Z,0.80
2018-11-21T12:13:04.447Z,0.70
2018-11-21T12:15:50.611Z,0.60
2018-11-21T12:18:40.582Z,0.60
2018-11-21T12:21:30.622Z,0.60
2018-11-21T12:24:23.539Z,0.60
2018-11-21T12:27:09.743Z,0.60
2018-11-21T12:29:56.073Z,0.60
2018-11-21T12:32:39.419Z,0.50
2018-11-21T12:35:25.981Z,0.60
2018-11-21T12:38:28.560Z,0.50
2018-11-21T12:41:14.932Z,0.50
2018-11-21T12:44:01.086Z,0.50
2018-11-21T12:46:49.305Z,0.50
2018-11-21T12:49:42.731Z,0.50
2018-11-21T12:52:32.814Z,0.40
2018-11-21T12:55:20.921Z,0.50
2018-11-21T12:58:10.991Z,0.50
2018-11-21T13:00:57.529Z,0.50
2018-11-21T13:03:43.524Z,0.50
2018-11-21T13:06:31.100Z,0.40
2018-11-21T13:09:24.316Z,0.40
2018-11-21T13:12:08.683Z,0.40
2018-11-21T13:14:44.620Z,0.40
2018-11-21T13:17:35.010Z,0.40
2018-11-21T13:20:21.258Z,0.40
2018-11-21T13:22:55.452Z,0.40
2018-11-21T13:25:41.455Z,0.30
2018-11-21T13:28:23.344Z,0.40
2018-11-21T13:31:10.746Z,0.30
2018-11-21T13:34:01.512Z,0.40
2018-11-21T13:36:45.566Z,0.30
2018-11-21T13:39:43.075Z,0.20
2018-11-21T13:42:30.662Z,0.30
2018-11-21T13:45:14.606Z,0.50
2018-11-21T13:48:05.632Z,0.50
2018-11-21T13:50:52.042Z,0.60
2018-11-21T13:53:38.336Z,0.70
2018-11-21T13:56:06.716Z,0.70
2018-11-21T13:58:34.984Z,0.80
2018-11-21T14:01:03.210Z,0.80
2018-11-21T14:03:31.738Z,0.80
2018-11-21T14:06:00.305Z,0.80
2018-11-21T14:08:28.708Z,0.80
2018-11-21T14:10:56.953Z,1.00
2018-11-21T14:13:25.180Z,1.10
2018-11-21T14:15:53.407Z,1.10
2018-11-21T14:18:21.628Z,1.20
2018-11-21T14:20:49.975Z,1.10
2018-11-21T14:23:18.336Z,1.10
2018-11-21T14:25:46.641Z,1.10
2018-11-21T14:28:14.878Z,1.10
2018-11-21T14:30:43.297Z,1.10
2018-11-21T14:33:11.700Z,1.10
2018-11-21T14:35:39.896Z,1.10
2018-11-21T14:38:08.121Z,1.00
2018-11-21T14:40:36.354Z,1.00
2018-11-21T14:43:04.726Z,1.00
2018-11-21T14:45:32.964Z,1.00
2018-11-21T14:48:01.223Z,0.90
2018-11-21T14:50:39.052Z,0.90
2018-11-21T14:53:02.593Z,0.90
2018-11-21T14:55:30.841Z,0.90
2018-11-21T14:57:59.242Z,0.90
2018-11-21T15:00:27.444Z,0.80
2018-11-21T15:02:55.695Z,0.80
2018-11-21T15:05:23.906Z,0.70
2018-11-21T15:07:52.105Z,0.60
2018-11-21T15:10:20.286Z,0.60
2018-11-21T15:12:48.492Z,0.60
2018-11-21T15:15:18.349Z,0.60
2018-11-21T15:17:46.667Z,0.50
2018-11-21T15:20:16.643Z,0.50
2018-11-21T15:22:45.197Z,0.50
2018-11-21T15:25:15.203Z,0.50
2018-11-21T15:27:43.540Z,0.50
2018-11-21T15:30:17.732Z,0.50
2018-11-21T15:32:46.017Z,0.50
2018-11-21T15:35:14.336Z,0.50
2018-11-21T15:37:43.255Z,0.50
2018-11-21T15:40:13.797Z,0.50
2018-11-21T15:42:42.139Z,0.50
2018-11-21T15:45:12.909Z,0.50
2018-11-21T15:47:41.471Z,0.50
2018-11-21T15:50:11.755Z,0.50
2018-11-21T15:52:40.581Z,0.50
2018-11-21T15:55:10.153Z,0.40
2018-11-21T15:57:38.685Z,0.40
2018-11-21T16:00:11.620Z,0.40
2018-11-21T16:02:40.958Z,0.40
2018-11-21T16:05:09.245Z,0.40
2018-11-21T16:07:38.075Z,0.40
2018-11-21T16:10:10.093Z,0.40
2018-11-21T16:12:37.121Z,0.30
2018-11-21T16:15:08.801Z,0.30
2018-11-21T16:17:39.362Z,0.30
2018-11-21T16:20:11.250Z,0.30
2018-11-21T16:22:39.605Z,0.30
2018-11-21T16:25:09.796Z,0.30
2018-11-21T16:27:38.531Z,0.30
2018-11-21T16:30:09.931Z,0.40
2018-11-21T16:32:38.302Z,0.40
2018-11-21T16:35:08.496Z,0.40
2018-11-21T16:37:35.690Z,0.40
2018-11-21T16:40:05.166Z,0.40
2018-11-21T16:42:33.784Z,0.40
2018-11-21T16:45:02.372Z,0.40
2018-11-21T16:47:30.912Z,0.40
2018-11-21T16:49:59.137Z,0.40
2018-11-21T16:52:27.350Z,0.40
2018-11-21T16:54:55.760Z,0.40
2018-11-21T16:57:24.147Z,0.40
2018-11-21T16:59:52.405Z,0.40
2018-11-21T17:02:20.637Z,0.50
2018-11-21T17:04:48.839Z,0.40
2018-11-21T17:07:17.360Z,0.50
2018-11-21T17:09:46.162Z,0.40
2018-11-21T17:12:15.118Z,0.50
2018-11-21T17:14:44.008Z,0.50
2018-11-21T17:17:12.923Z,0.50
2018-11-21T17:19:41.496Z,0.50
2018-11-21T17:22:09.756Z,0.50
2018-11-21T17:24:38.398Z,0.60
2018-11-21T17:27:06.979Z,0.50
2018-11-21T17:29:35.451Z,0.50
2018-11-21T17:32:04.325Z,0.50
2018-11-21T17:34:32.910Z,0.40
2018-11-21T17:37:01.641Z,0.50
2018-11-21T17:39:29.795Z,0.50
2018-11-21T17:41:58.100Z,0.50
2018-11-21T17:44:26.535Z,0.50
2018-11-21T17:46:55.152Z,0.50
2018-11-21T17:49:23.616Z,0.50
2018-11-21T17:51:54.295Z,0.50
2018-11-21T17:54:22.719Z,0.50
2018-11-21T17:56:50.994Z,0.50
2018-11-21T17:59:19.479Z,0.50
2018-11-21T18:01:48.068Z,0.50
2018-11-21T18:04:16.334Z,0.50
2018-11-21T18:06:44.617Z,0.50
2018-11-21T18:09:13.642Z,0.50
2018-11-21T18:11:42.184Z,0.50
2018-11-21T18:14:10.412Z,0.50
2018-11-21T18:16:38.680Z,0.50
2018-11-21T18:19:07.183Z,0.50
2018-11-21T18:21:35.397Z,0.50
2018-11-21T18:24:03.732Z,0.50
2018-11-21T18:26:32.209Z,0.50
2018-11-21T18:29:00.473Z,0.50
2018-11-21T18:31:29.284Z,0.50
2018-11-21T18:33:57.669Z,0.50
2018-11-21T18:36:25.929Z,0.50
2018-11-21T18:38:54.261Z,0.60
2018-11-21T18:41:22.485Z,0.50
2018-11-21T18:43:51.026Z,0.60
2018-11-21T18:46:19.767Z,0.50
2018-11-21T18:48:48.448Z,0.60
2018-11-21T18:51:16.871Z,0.50
2018-11-21T18:53:45.205Z,0.50
2018-11-21T18:56:37.784Z,0.50
2018-11-21T18:59:33.343Z,0.60
2018-11-21T19:02:01.480Z,0.50
2018-11-21T19:04:29.851Z,0.50
2018-11-21T19:06:58.030Z,0.50
2018-11-21T19:09:26.248Z,0.50
2018-11-21T19:11:54.571Z,0.50
2018-11-21T19:14:24.469Z,0.50
2018-11-21T19:16:53.044Z,0.50
2018-11-21T19:19:21.423Z,0.50
2018-11-21T19:21:49.907Z,0.50
2018-11-21T19:24:18.400Z,0.50
2018-11-21T19:26:46.884Z,0.50
2018-11-21T19:29:15.147Z,0.50
2018-11-21T19:31:43.613Z,0.50
2018-11-21T19:34:12.411Z,0.50
2018-11-21T19:36:40.826Z,0.50
2018-11-21T19:39:14.639Z,0.40
2018-11-21T19:41:43.059Z,0.40
2018-11-21T19:44:11.770Z,0.50
2018-11-21T19:46:40.465Z,0.50
2018-11-21T19:49:08.843Z,0.50
2018-11-21T19:51:44.456Z,0.50
2018-11-21T19:54:12.627Z,0.50
2018-11-21T19:56:41.026Z,0.50
2018-11-21T19:59:09.420Z,0.50
2018-11-21T20:01:37.908Z,0.50
2018-11-21T20:04:06.125Z,0.50
2018-11-21T20:06:34.606Z,0.50
2018-11-21T20:09:02.846Z,0.60
2018-11-21T20:11:31.215Z,0.60
2018-11-21T20:13:59.721Z,0.70
2018-11-21T20:16:28.231Z,0.70
2018-11-21T20:18:56.686Z,0.70
2018-11-21T20:21:27.389Z,0.80
2018-11-21T20:23:55.892Z,0.70
2018-11-21T20:26:24.264Z,0.70
2018-11-21T20:28:52.807Z,0.80
2018-11-21T20:31:21.284Z,0.80
2018-11-21T20:33:50.180Z,0.80
2018-11-21T20:36:18.387Z,0.90
2018-11-21T20:38:46.593Z,0.90
2018-11-21T20:41:14.882Z,0.90
2018-11-21T20:43:43.546Z,0.90
2018-11-21T20:46:12.069Z,0.90
2018-11-21T20:48:41.094Z,0.90
2018-11-21T20:51:09.341Z,0.90
2018-11-21T20:53:38.410Z,0.90
2018-11-21T20:56:06.769Z,0.90
2018-11-21T20:58:34.982Z,0.90
2018-11-21T21:01:03.552Z,0.90
2018-11-21T21:03:32.208Z,0.80
2018-11-21T21:06:02.123Z,0.90
2018-11-21T21:08:30.583Z,0.90
2018-11-21T21:10:59.051Z,0.90
2018-11-21T21:13:27.854Z,0.90
2018-11-21T21:15:56.572Z,0.90
2018-11-21T21:18:25.513Z,0.90
2018-11-21T21:20:54.542Z,0.90
2018-11-21T21:23:23.548Z,0.90
2018-11-21T21:25:52.155Z,0.90
2018-11-21T21:28:20.682Z,0.90
2018-11-21T21:30:49.278Z,0.90
2018-11-21T21:33:17.865Z,0.80
2018-11-21T21:35:46.656Z,0.80
2018-11-21T21:38:14.940Z,0.80
2018-11-21T21:40:43.396Z,0.80
2018-11-21T21:43:12.059Z,0.80
2018-11-21T21:45:41.003Z,0.80
2018-11-21T21:48:09.234Z,0.70
2018-11-21T21:50:38.081Z,0.70
2018-11-21T21:53:06.291Z,0.80
2018-11-21T21:55:34.610Z,0.80
2018-11-21T21:58:03.699Z,0.80
2018-11-21T22:00:32.205Z,0.80
2018-11-21T22:03:01.313Z,0.80
2018-11-21T22:05:29.930Z,0.80
2018-11-21T22:07:58.470Z,0.80
2018-11-21T22:10:28.644Z,0.80
2018-11-21T22:12:58.879Z,0.80
2018-11-21T22:15:28.339Z,0.80
2018-11-21T22:17:58.356Z,0.80
2018-11-21T22:20:26.551Z,0.80
2018-11-21T22:22:56.843Z,0.70
2018-11-21T22:25:25.672Z,0.70
2018-11-21T22:27:54.246Z,0.70
2018-11-21T22:30:23.752Z,0.70
2018-11-21T22:32:55.478Z,0.70
2018-11-21T22:35:25.742Z,0.70
2018-11-21T22:37:56.441Z,0.70
2018-11-21T22:40:24.771Z,0.70
2018-11-21T22:42:53.861Z,0.60
2018-11-21T22:45:22.844Z,0.70
2018-11-21T22:47:51.523Z,0.60
2018-11-21T22:50:24.234Z,0.60
2018-11-21T22:52:53.043Z,0.70
2018-11-21T22:55:22.230Z,0.60
2018-11-21T22:57:51.683Z,0.60
2018-11-21T23:00:39.443Z,0.60
2018-11-21T23:03:08.079Z,0.60
2018-11-21T23:05:37.700Z,0.60
2018-11-21T23:08:05.765Z,0.60
2018-11-21T23:10:34.653Z,0.50
2018-11-21T23:13:03.305Z,0.50
2018-11-21T23:15:31.526Z,0.50
2018-11-21T23:18:00.105Z,0.50
2018-11-21T23:20:28.964Z,0.40
2018-11-21T23:22:57.523Z,0.40
2018-11-21T23:25:26.028Z,0.40
2018-11-21T23:27:54.954Z,0.40
2018-11-21T23:30:23.931Z,0.40
2018-11-21T23:32:52.241Z,0.40
2018-11-21T23:35:21.338Z,0.40
2018-11-21T23:37:49.961Z,0.40
2018-11-21T23:40:18.557Z,0.40
2018-11-21T23:42:48.776Z,0.40
2018-11-21T23:45:20.121Z,0.40
2018-11-21T23:47:48.889Z,0.40
2018-11-21T23:50:18.681Z,0.40
2018-11-21T23:52:47.345Z,0.30
2018-11-21T23:55:18.058Z,0.40
2018-11-21T23:57:46.531Z,0.40
